createdAt,value
2017-08-04T00:00:39.097Z,85.16
2017-08-04T00:01:37.601Z,85.45
2017-08-04T00:02:37.906Z,85.8
2017-08-04T00:03:37.906Z,84.97
2017-08-04T00:04:37.916Z,85.89
2017-08-04T00:05:37.921Z,86.13
2017-08-04T00:06:37.928Z,86.03
2017-08-04T00:07:37.931Z,86.28
2017-08-04T00:08:37.940Z,85.8
2017-08-04T00:09:37.637Z,85.89
2017-08-04T00:10:37.934Z,85.8
2017-08-04T00:11:37.636Z,86.57
2017-08-04T00:12:37.953Z,86.76
2017-08-04T00:13:37.946Z,86.08
2017-08-04T00:14:37.954Z,85.8
2017-08-04T00:15:37.652Z,86.08
2017-08-04T00:16:37.656Z,86.66
2017-08-04T00:17:37.958Z,86.18
2017-08-04T00:18:37.980Z,86.38
2017-08-04T00:19:37.971Z,86.18
2017-08-04T00:20:37.986Z,86.38
2017-08-04T00:21:37.980Z,86.57
2017-08-04T00:22:37.981Z,86.76
2017-08-04T00:23:37.984Z,86.38
2017-08-04T00:24:37.989Z,87.15
2017-08-04T00:25:37.993Z,87.34
2017-08-04T00:26:38.010Z,87.82
2017-08-04T00:27:38.000Z,87.82
2017-08-04T00:28:38.011Z,87.44
2017-08-04T00:29:39.812Z,87.24
2017-08-04T00:30:38.535Z,88.02
2017-08-04T00:31:37.714Z,88.02
2017-08-04T00:32:38.016Z,88.02
2017-08-04T00:33:38.028Z,87.82
2017-08-04T00:34:37.729Z,87.82
2017-08-04T00:35:38.029Z,87.92
2017-08-04T00:36:38.034Z,88.11
2017-08-04T00:37:37.735Z,87.92
2017-08-04T00:38:37.737Z,87.44
2017-08-04T00:39:38.046Z,88.11
2017-08-04T00:40:38.054Z,88.11
2017-08-04T00:41:38.056Z,88.31
2017-08-04T00:42:38.055Z,88.11
2017-08-04T00:43:37.764Z,88.4
2017-08-04T00:44:38.064Z,88.98
2017-08-04T00:45:38.069Z,88.69
2017-08-04T00:46:37.785Z,88.98
2017-08-04T00:47:38.075Z,88.79
2017-08-04T00:48:38.078Z,88.93
2017-08-04T00:49:38.087Z,89.13
2017-08-04T00:50:37.783Z,89.42
2017-08-04T00:51:38.091Z,89.81
2017-08-04T00:52:38.094Z,89.61
2017-08-04T00:53:38.099Z,89.13
2017-08-04T00:54:38.106Z,89.03
2017-08-04T00:55:37.835Z,88.55
2017-08-04T00:56:38.122Z,88.5
2017-08-04T00:57:37.816Z,88.45
2017-08-04T00:58:38.122Z,88.65
2017-08-04T00:59:38.122Z,89.13
2017-08-04T01:00:37.825Z,88.65
2017-08-04T01:01:43.188Z,88.93
2017-08-04T01:02:38.132Z,88.65
2017-08-04T01:03:37.849Z,88.75
2017-08-04T01:04:37.840Z,88.75
2017-08-04T01:05:38.145Z,88.93
2017-08-04T01:06:38.150Z,89.61
2017-08-04T01:07:37.852Z,89.51
2017-08-04T01:08:37.857Z,89.32
2017-08-04T01:09:38.162Z,89.23
2017-08-04T01:10:37.861Z,89.42
2017-08-04T01:11:38.165Z,90
2017-08-04T01:12:38.173Z,89.71
2017-08-04T01:13:37.876Z,90.58
2017-08-04T01:14:38.178Z,90.19
2017-08-04T01:15:38.182Z,90.77
2017-08-04T01:16:38.187Z,90.48
2017-08-04T01:17:38.190Z,90.77
2017-08-04T01:18:38.201Z,91.06
2017-08-04T01:19:38.198Z,90.29
2017-08-04T01:20:38.199Z,91.16
2017-08-04T01:21:37.904Z,90.87
2017-08-04T01:22:38.210Z,91.06
2017-08-04T01:23:38.210Z,91.06
2017-08-04T01:24:38.216Z,91.06
2017-08-04T01:25:38.229Z,90.96
2017-08-04T01:26:38.224Z,91.16
2017-08-04T01:27:38.226Z,90.87
2017-08-04T01:28:38.228Z,91.74
2017-08-04T01:29:37.947Z,90.96
2017-08-04T01:30:38.246Z,91.06
2017-08-04T01:31:38.243Z,91.25
2017-08-04T01:32:38.242Z,91.25
2017-08-04T01:33:38.251Z,91.64
2017-08-04T01:34:38.262Z,91.83
2017-08-04T01:35:38.265Z,91.44
2017-08-04T01:36:38.267Z,90.82
2017-08-04T01:37:38.278Z,91.25
2017-08-04T01:38:38.265Z,90.96
2017-08-04T01:39:38.270Z,91.25
2017-08-04T01:40:38.282Z,91.25
2017-08-04T01:41:38.300Z,91.54
2017-08-04T01:42:38.289Z,90.82
2017-08-04T01:43:38.292Z,90.53
2017-08-04T01:44:37.986Z,90.87
2017-08-04T01:45:37.989Z,91.02
2017-08-04T01:46:38.311Z,91.11
2017-08-04T01:47:38.347Z,91.2
2017-08-04T01:48:38.305Z,91.3
2017-08-04T01:49:38.306Z,90.96
2017-08-04T01:50:38.307Z,90.34
2017-08-04T01:51:38.313Z,90.77
2017-08-04T01:52:38.318Z,90.24
2017-08-04T01:53:38.330Z,91.11
2017-08-04T01:54:38.326Z,90.92
2017-08-04T01:55:38.327Z,91.06
2017-08-04T01:56:38.026Z,91.2
2017-08-04T01:57:38.033Z,90.96
2017-08-04T01:58:38.037Z,91.02
2017-08-04T01:59:38.352Z,91.25
2017-08-04T02:00:38.047Z,91.44
2017-08-04T02:01:38.046Z,91.35
2017-08-04T02:02:38.702Z,91.02
2017-08-04T02:03:38.356Z,91.06
2017-08-04T02:04:38.366Z,90.58
2017-08-04T02:05:38.374Z,91.2
2017-08-04T02:06:38.371Z,91.4
2017-08-04T02:07:38.083Z,90.92
2017-08-04T02:08:38.375Z,90.92
2017-08-04T02:09:38.078Z,90.92
2017-08-04T02:10:38.382Z,91.11
2017-08-04T02:11:38.086Z,91.69
2017-08-04T02:12:38.398Z,91.4
2017-08-04T02:13:38.091Z,91.02
2017-08-04T02:14:38.094Z,91.4
2017-08-04T02:15:38.410Z,91.4
2017-08-04T02:16:38.101Z,91.83
2017-08-04T02:17:38.455Z,91.35
2017-08-04T02:18:38.114Z,91.74
2017-08-04T02:19:38.413Z,91.69
2017-08-04T02:20:38.115Z,91.6
2017-08-04T02:21:38.422Z,91.2
2017-08-04T02:22:38.433Z,91.2
2017-08-04T02:23:38.436Z,91.88
2017-08-04T02:24:38.137Z,91.78
2017-08-04T02:25:38.132Z,92.27
2017-08-04T02:26:38.441Z,92.36
2017-08-04T02:27:38.140Z,92.36
2017-08-04T02:28:38.445Z,92.27
2017-08-04T02:29:38.447Z,92.27
2017-08-04T02:30:38.154Z,92.46
2017-08-04T02:31:38.454Z,92.56
2017-08-04T02:32:38.505Z,92.94
2017-08-04T02:33:38.169Z,92.94
2017-08-04T02:34:38.472Z,93.04
2017-08-04T02:35:38.468Z,93.23
2017-08-04T02:36:38.171Z,93.52
2017-08-04T02:37:38.485Z,93.04
2017-08-04T02:38:38.487Z,93.71
2017-08-04T02:39:38.489Z,93.76
2017-08-04T02:40:38.497Z,94.39
2017-08-04T02:41:38.491Z,94.58
2017-08-04T02:42:38.191Z,94.29
2017-08-04T02:43:38.500Z,93.13
2017-08-04T02:44:38.239Z,93.43
2017-08-04T02:45:38.520Z,93.04
2017-08-04T02:46:38.503Z,93.23
2017-08-04T02:47:38.562Z,92.94
2017-08-04T02:48:38.514Z,92.94
2017-08-04T02:49:38.516Z,92.75
2017-08-04T02:50:38.521Z,92.32
2017-08-04T02:51:38.520Z,92.32
2017-08-04T02:52:38.529Z,91.74
2017-08-04T02:53:38.525Z,91.44
2017-08-04T02:54:38.231Z,91.54
2017-08-04T02:55:38.537Z,91.64
2017-08-04T02:56:38.539Z,92.12
2017-08-04T02:57:38.551Z,92.41
2017-08-04T02:58:38.253Z,92.32
2017-08-04T02:59:38.556Z,92.22
2017-08-04T03:00:38.557Z,92.12
2017-08-04T03:01:38.557Z,92.02
2017-08-04T03:02:42.164Z,92.89
2017-08-04T03:03:38.261Z,92.8
2017-08-04T03:04:38.268Z,92.99
2017-08-04T03:05:38.583Z,92.8
2017-08-04T03:06:38.585Z,92.6
2017-08-04T03:07:38.581Z,92.5
2017-08-04T03:08:38.303Z,91.25
2017-08-04T03:09:38.291Z,91.25
2017-08-04T03:10:38.602Z,91.25
2017-08-04T03:11:38.612Z,91.44
2017-08-04T03:12:38.616Z,91.64
2017-08-04T03:13:38.612Z,91.54
2017-08-04T03:14:38.307Z,91.74
2017-08-04T03:15:38.622Z,91.35
2017-08-04T03:16:38.307Z,91.06
2017-08-04T03:17:38.620Z,90.96
2017-08-04T03:18:38.618Z,91.16
2017-08-04T03:19:38.634Z,91.54
2017-08-04T03:20:38.328Z,91.64
2017-08-04T03:21:38.335Z,91.54
2017-08-04T03:22:38.628Z,91.25
2017-08-04T03:23:38.346Z,91.44
2017-08-04T03:24:38.652Z,91.44
2017-08-04T03:25:38.668Z,92.02
2017-08-04T03:26:38.363Z,92.41
2017-08-04T03:27:38.364Z,92.12
2017-08-04T03:28:38.657Z,92.41
2017-08-04T03:29:38.655Z,92.75
2017-08-04T03:30:38.665Z,92.65
2017-08-04T03:31:38.676Z,93.13
2017-08-04T03:32:38.673Z,93.33
2017-08-04T03:33:38.679Z,93.52
2017-08-04T03:34:38.674Z,93.71
2017-08-04T03:35:38.673Z,94.1
2017-08-04T03:36:38.681Z,94.29
2017-08-04T03:37:38.684Z,94.2
2017-08-04T03:38:38.690Z,94.2
2017-08-04T03:39:38.682Z,94.1
2017-08-04T03:40:38.690Z,94.39
2017-08-04T03:41:38.699Z,94.2
2017-08-04T03:42:38.693Z,94.39
2017-08-04T03:43:38.403Z,94.29
2017-08-04T03:44:38.717Z,94.39
2017-08-04T03:45:38.711Z,94.1
2017-08-04T03:46:38.717Z,94.58
2017-08-04T03:47:38.711Z,94.2
2017-08-04T03:48:40.415Z,94.87
2017-08-04T03:49:38.713Z,95.16
2017-08-04T03:50:38.721Z,94.58
2017-08-04T03:51:38.427Z,94.68
2017-08-04T03:52:38.716Z,94.78
2017-08-04T03:53:38.432Z,95.06
2017-08-04T03:54:38.423Z,95.16
2017-08-04T03:55:38.444Z,95.06
2017-08-04T03:56:38.430Z,94.87
2017-08-04T03:57:38.737Z,94.58
2017-08-04T03:58:38.737Z,94.2
2017-08-04T03:59:38.745Z,93.33
2017-08-04T04:00:38.744Z,92.7
2017-08-04T04:01:38.751Z,91.83
2017-08-04T04:02:38.748Z,91.64
2017-08-04T04:03:39.602Z,90.38
2017-08-04T04:04:38.756Z,90.87
2017-08-04T04:05:38.764Z,90.58
2017-08-04T04:06:38.460Z,90.38
2017-08-04T04:07:38.464Z,90.58
2017-08-04T04:08:38.771Z,90.19
2017-08-04T04:09:38.774Z,90.19
2017-08-04T04:10:38.781Z,89.9
2017-08-04T04:11:38.779Z,89.71
2017-08-04T04:12:38.791Z,90.19
2017-08-04T04:13:38.784Z,89.32
2017-08-04T04:14:38.796Z,89.61
2017-08-04T04:15:38.791Z,90
2017-08-04T04:16:38.794Z,89.51
2017-08-04T04:17:38.796Z,89.47
2017-08-04T04:18:38.801Z,90
2017-08-04T04:19:38.506Z,89.71
2017-08-04T04:20:38.813Z,89.81
2017-08-04T04:21:38.810Z,89.17
2017-08-04T04:22:38.817Z,89.37
2017-08-04T04:23:38.824Z,89.17
2017-08-04T04:24:38.516Z,89.95
2017-08-04T04:25:38.830Z,89.75
2017-08-04T04:26:38.831Z,88.98
2017-08-04T04:27:38.529Z,88.89
2017-08-04T04:28:38.836Z,88.79
2017-08-04T04:29:38.844Z,88.79
2017-08-04T04:30:38.847Z,88.5
2017-08-04T04:31:38.850Z,87.92
2017-08-04T04:32:38.848Z,87.92
2017-08-04T04:33:38.550Z,87.92
2017-08-04T04:34:38.856Z,87.67
2017-08-04T04:35:38.862Z,87.96
2017-08-04T04:36:38.864Z,87.19
2017-08-04T04:37:38.876Z,87.29
2017-08-04T04:38:38.871Z,86.52
2017-08-04T04:39:38.883Z,86.71
2017-08-04T04:40:38.880Z,86.32
2017-08-04T04:41:38.887Z,86.22
2017-08-04T04:42:38.891Z,85.74
2017-08-04T04:43:38.891Z,84.72
2017-08-04T04:44:38.594Z,83.95
2017-08-04T04:45:38.902Z,83.08
2017-08-04T04:46:38.902Z,82.83
2017-08-04T04:47:38.618Z,80.41
2017-08-04T04:48:38.914Z,79.87
2017-08-04T04:49:38.919Z,78.81
2017-08-04T04:50:38.929Z,78.75
2017-08-04T04:51:38.923Z,78.46
2017-08-04T04:52:38.632Z,78.42
2017-08-04T04:53:38.932Z,79.2
2017-08-04T04:54:38.937Z,79.78
2017-08-04T04:55:38.941Z,79.39
2017-08-04T04:56:38.951Z,80.22
2017-08-04T04:57:38.948Z,80.61
2017-08-04T04:58:38.964Z,81.19
2017-08-04T04:59:38.965Z,82.25
2017-08-04T05:00:38.969Z,82.45
2017-08-04T05:01:38.967Z,82.15
2017-08-04T05:02:38.971Z,82.83
2017-08-04T05:03:38.981Z,82.83
2017-08-04T05:04:44.141Z,81.87
2017-08-04T05:05:38.989Z,80.46
2017-08-04T05:06:38.999Z,78.66
2017-08-04T05:07:38.993Z,78.11
2017-08-04T05:08:39.000Z,77.34
2017-08-04T05:09:39.008Z,76.25
2017-08-04T05:10:39.012Z,75.19
2017-08-04T05:11:39.018Z,75.38
2017-08-04T05:12:39.021Z,75.32
2017-08-04T05:13:39.027Z,74.54
2017-08-04T05:14:39.028Z,74.6
2017-08-04T05:15:39.037Z,73.67
2017-08-04T05:16:39.042Z,72.51
2017-08-04T05:17:39.107Z,72.25
2017-08-04T05:18:39.101Z,70.73
2017-08-04T05:19:39.056Z,69.6
2017-08-04T05:20:38.773Z,69.12
2017-08-04T05:21:38.771Z,68.54
2017-08-04T05:22:39.087Z,68.38
2017-08-04T05:23:39.083Z,68.38
2017-08-04T05:24:39.089Z,68.67
2017-08-04T05:25:39.091Z,68.08
2017-08-04T05:26:39.099Z,66.82
2017-08-04T05:27:39.107Z,67.15
2017-08-04T05:28:38.812Z,66.76
2017-08-04T05:29:39.118Z,67.05
2017-08-04T05:30:39.156Z,67.89
2017-08-04T05:31:39.158Z,68.28
2017-08-04T05:32:39.161Z,68.77
2017-08-04T05:33:39.162Z,68.73
2017-08-04T05:34:39.157Z,68.63
2017-08-04T05:35:39.168Z,68.83
2017-08-04T05:36:39.171Z,68.54
2017-08-04T05:37:39.171Z,68.87
2017-08-04T05:38:39.195Z,69.51
2017-08-04T05:39:39.193Z,69.7
2017-08-04T05:40:39.192Z,70.67
2017-08-04T05:41:39.198Z,70.73
2017-08-04T05:42:39.222Z,71.12
2017-08-04T05:43:39.220Z,71.67
2017-08-04T05:44:39.231Z,72.74
2017-08-04T05:45:39.224Z,73.38
2017-08-04T05:46:39.227Z,73.86
2017-08-04T05:47:39.232Z,74.51
2017-08-04T05:48:39.239Z,75.28
2017-08-04T05:49:39.245Z,75.67
2017-08-04T05:50:39.252Z,75.96
2017-08-04T05:51:39.258Z,76.79
2017-08-04T05:52:39.262Z,77.19
2017-08-04T05:53:39.267Z,78.34
2017-08-04T05:54:39.282Z,78.05
2017-08-04T05:55:39.306Z,78.21
2017-08-04T05:56:39.288Z,77.86
2017-08-04T05:57:39.287Z,78.34
2017-08-04T05:58:39.308Z,78.15
2017-08-04T05:59:39.003Z,77.47
2017-08-04T06:00:39.359Z,77.19
2017-08-04T06:01:39.310Z,76.89
2017-08-04T06:02:39.314Z,76.99
2017-08-04T06:03:39.322Z,76.79
2017-08-04T06:04:39.326Z,77.28
2017-08-04T06:05:41.338Z,77.09
2017-08-04T06:06:39.336Z,76.89
2017-08-04T06:07:39.343Z,76.99
2017-08-04T06:08:39.348Z,76.79
2017-08-04T06:09:39.354Z,77.19
2017-08-04T06:10:39.401Z,76.89
2017-08-04T06:11:39.370Z,76.25
2017-08-04T06:12:39.365Z,76.25
2017-08-04T06:13:39.371Z,75.19
2017-08-04T06:14:39.385Z,74.51
2017-08-04T06:15:39.085Z,74.35
2017-08-04T06:16:39.394Z,74.16
2017-08-04T06:17:39.393Z,73.86
2017-08-04T06:18:39.404Z,73.67
2017-08-04T06:19:39.407Z,73.77
2017-08-04T06:20:39.617Z,73.28
2017-08-04T06:21:39.412Z,72.99
2017-08-04T06:22:39.116Z,72.89
2017-08-04T06:23:39.431Z,71.93
2017-08-04T06:24:39.434Z,71.58
2017-08-04T06:25:39.469Z,70.99
2017-08-04T06:26:39.440Z,70.64
2017-08-04T06:27:39.457Z,68.63
2017-08-04T06:28:39.452Z,66.24
2017-08-04T06:29:39.458Z,63.62
2017-08-04T06:30:39.469Z,64.4
2017-08-04T06:31:39.469Z,61.87
2017-08-04T06:32:39.476Z,60.51
2017-08-04T06:33:39.486Z,62.58
2017-08-04T06:34:39.493Z,62
2017-08-04T06:35:40.671Z,61.9
2017-08-04T06:36:39.502Z,61.8
2017-08-04T06:37:39.505Z,61.64
2017-08-04T06:38:39.517Z,60.28
2017-08-04T06:39:39.514Z,59.14
2017-08-04T06:40:39.533Z,58.39
2017-08-04T06:41:39.530Z,58.1
2017-08-04T06:42:39.537Z,57.64
2017-08-04T06:43:39.543Z,56.37
2017-08-04T06:44:39.549Z,57.06
2017-08-04T06:45:39.616Z,55.89
2017-08-04T06:46:39.563Z,54.91
2017-08-04T06:47:39.570Z,54.62
2017-08-04T06:48:39.576Z,53.94
2017-08-04T06:49:39.580Z,53.38
2017-08-04T06:50:39.372Z,53.02
2017-08-04T06:51:39.611Z,53.89
2017-08-04T06:52:39.606Z,52.92
2017-08-04T06:53:39.314Z,53.02
2017-08-04T06:54:39.622Z,53.77
2017-08-04T06:55:39.663Z,54.82
2017-08-04T06:56:39.637Z,54.91
2017-08-04T06:57:39.643Z,55.27
2017-08-04T06:58:39.649Z,54.52
2017-08-04T06:59:39.657Z,55.21
2017-08-04T07:00:39.749Z,55.4
2017-08-04T07:01:39.669Z,56.37
2017-08-04T07:02:39.679Z,55.47
2017-08-04T07:03:39.690Z,56.45
2017-08-04T07:04:39.687Z,56.81
2017-08-04T07:05:39.718Z,57.78
2017-08-04T07:06:39.704Z,57.87
2017-08-04T07:07:39.409Z,58.36
2017-08-04T07:08:39.719Z,57.22
2017-08-04T07:09:39.727Z,55.18
2017-08-04T07:10:39.752Z,53.77
2017-08-04T07:11:39.759Z,52.34
2017-08-04T07:12:39.758Z,51.87
2017-08-04T07:13:39.754Z,50.14
2017-08-04T07:14:39.764Z,49.76
2017-08-04T07:15:39.776Z,49.17
2017-08-04T07:16:39.776Z,48.83
2017-08-04T07:17:39.795Z,48.14
2017-08-04T07:18:39.790Z,47.87
2017-08-04T07:19:39.800Z,46.72
2017-08-04T07:20:39.880Z,45.28
2017-08-04T07:21:39.815Z,43.17
2017-08-04T07:22:39.828Z,41.52
2017-08-04T07:23:39.837Z,44.15
2017-08-04T07:24:39.841Z,45.97
2017-08-04T07:25:39.867Z,45.06
2017-08-04T07:26:39.556Z,45.75
2017-08-04T07:27:39.572Z,43.62
2017-08-04T07:28:39.881Z,44.2
2017-08-04T07:29:39.891Z,44.2
2017-08-04T07:30:39.976Z,45.06
2017-08-04T07:31:39.914Z,44.94
2017-08-04T07:32:39.930Z,45.82
2017-08-04T07:33:39.934Z,45.61
2017-08-04T07:34:39.942Z,46.39
2017-08-04T07:35:40.054Z,47.56
2017-08-04T07:36:39.973Z,49
2017-08-04T07:37:39.986Z,47.63
2017-08-04T07:38:39.975Z,46.07
2017-08-04T07:39:39.985Z,45.78
2017-08-04T07:40:40.006Z,45.87
2017-08-04T07:41:40.004Z,47.31
2017-08-04T07:42:40.022Z,48.46
2017-08-04T07:43:39.703Z,48.83
2017-08-04T07:44:40.026Z,50.29
2017-08-04T07:45:40.096Z,50.07
2017-08-04T07:46:40.038Z,49.68
2017-08-04T07:47:40.044Z,49
2017-08-04T07:48:40.054Z,49
2017-08-04T07:49:40.056Z,47.52
2017-08-04T07:50:40.140Z,48.58
2017-08-04T07:51:39.814Z,48.36
2017-08-04T07:52:40.090Z,48.27
2017-08-04T07:53:40.090Z,47.32
2017-08-04T07:54:40.105Z,46.93
2017-08-04T07:55:40.160Z,45.1
2017-08-04T07:56:40.904Z,43.47
2017-08-04T07:57:39.809Z,41.83
2017-08-04T07:58:40.135Z,41.73
2017-08-04T07:59:39.822Z,41.85
2017-08-04T08:00:39.888Z,41.38
2017-08-04T08:01:40.158Z,40.33
2017-08-04T08:02:40.167Z,38.71
2017-08-04T08:03:39.865Z,36.79
2017-08-04T08:04:40.181Z,34.75
2017-08-04T08:05:40.320Z,33.12
2017-08-04T08:06:42.246Z,31.76
2017-08-04T08:07:40.201Z,31.17
2017-08-04T08:08:40.219Z,32.17
2017-08-04T08:09:40.216Z,31.19
2017-08-04T08:10:40.318Z,31.38
2017-08-04T08:11:40.237Z,32.37
2017-08-04T08:12:40.253Z,31.01
2017-08-04T08:13:40.251Z,30.53
2017-08-04T08:14:40.257Z,28.97
2017-08-04T08:15:40.383Z,28.7
2017-08-04T08:16:40.282Z,27.94
2017-08-04T08:17:40.289Z,28.72
2017-08-04T08:18:40.300Z,28.12
2017-08-04T08:19:40.032Z,28.13
2017-08-04T08:20:40.436Z,27.44
2017-08-04T08:21:40.336Z,27.82
2017-08-04T08:22:40.062Z,27.91
2017-08-04T08:23:40.366Z,28.11
2017-08-04T08:24:40.071Z,27.5
2017-08-04T08:25:40.417Z,28.09
2017-08-04T08:26:40.387Z,28.09
2017-08-04T08:27:40.394Z,27.99
2017-08-04T08:28:40.410Z,28.49
2017-08-04T08:29:40.131Z,27.42
2017-08-04T08:30:40.476Z,26.53
2017-08-04T08:31:40.163Z,26.82
2017-08-04T08:32:40.453Z,26.73
2017-08-04T08:33:40.493Z,26.54
2017-08-04T08:34:40.479Z,26.93
2017-08-04T08:35:40.558Z,26.56
2017-08-04T08:36:40.501Z,25.88
2017-08-04T08:37:40.513Z,24.99
2017-08-04T08:38:40.522Z,25.29
2017-08-04T08:39:40.532Z,26.28
2017-08-04T08:40:40.638Z,26.26
2017-08-04T08:41:40.556Z,27.04
2017-08-04T08:42:40.574Z,25.85
2017-08-04T08:43:40.584Z,26.04
2017-08-04T08:44:40.598Z,26.43
2017-08-04T08:45:40.692Z,26.63
2017-08-04T08:46:40.617Z,26.64
2017-08-04T08:47:40.637Z,25.17
2017-08-04T08:48:40.651Z,23.4
2017-08-04T08:49:40.651Z,23.2
2017-08-04T08:50:40.454Z,23.58
2017-08-04T08:51:40.672Z,24.84
2017-08-04T08:52:40.438Z,25.52
2017-08-04T08:53:40.701Z,25.79
2017-08-04T08:54:40.709Z,25.59
2017-08-04T08:55:40.477Z,26.26
2017-08-04T08:56:40.725Z,27.8
2017-08-04T08:57:40.742Z,27.97
2017-08-04T08:58:40.750Z,26.88
2017-08-04T08:59:40.761Z,28.54
2017-08-04T09:00:40.810Z,27.66
2017-08-04T09:01:40.479Z,28.14
2017-08-04T09:02:41.596Z,29.21
2017-08-04T09:03:40.805Z,30.27
2017-08-04T09:04:40.819Z,29.77
2017-08-04T09:05:40.913Z,31.13
2017-08-04T09:06:40.834Z,30.18
2017-08-04T09:07:41.206Z,29.88
2017-08-04T09:08:40.854Z,29.6
2017-08-04T09:09:40.868Z,29.02
2017-08-04T09:10:40.928Z,29.21
2017-08-04T09:11:40.883Z,29.11
2017-08-04T09:12:40.893Z,29.9
2017-08-04T09:13:40.902Z,30.09
2017-08-04T09:14:40.929Z,29.9
2017-08-04T09:15:40.988Z,29.99
2017-08-04T09:16:40.933Z,29.9
2017-08-04T09:17:40.652Z,29.6
2017-08-04T09:18:40.946Z,30.87
2017-08-04T09:19:40.957Z,30.77
2017-08-04T09:20:41.023Z,30.87
2017-08-04T09:21:40.970Z,30.47
2017-08-04T09:22:40.678Z,29.99
2017-08-04T09:23:40.999Z,30.48
2017-08-04T09:24:41.000Z,30.19
2017-08-04T09:25:40.807Z,30.48
2017-08-04T09:26:40.712Z,31.75
2017-08-04T09:27:41.026Z,30.3
2017-08-04T09:28:41.043Z,30.2
2017-08-04T09:29:41.043Z,30.3
2017-08-04T09:30:41.123Z,29.83
2017-08-04T09:31:41.062Z,30.3
2017-08-04T09:32:40.774Z,29.91
2017-08-04T09:33:41.081Z,29.24
2017-08-04T09:34:41.088Z,29.83
2017-08-04T09:35:41.169Z,30.59
2017-08-04T09:36:41.128Z,32.07
2017-08-04T09:37:41.126Z,30.98
2017-08-04T09:38:41.070Z,32.26
2017-08-04T09:39:41.151Z,33.4
2017-08-04T09:40:41.206Z,34.16
2017-08-04T09:41:40.853Z,34.94
2017-08-04T09:42:40.846Z,33.38
2017-08-04T09:43:41.173Z,33.28
2017-08-04T09:44:41.181Z,33.75
2017-08-04T09:45:41.286Z,33.85
2017-08-04T09:46:40.888Z,33.26
2017-08-04T09:47:41.199Z,33.56
2017-08-04T09:48:41.199Z,31.7
2017-08-04T09:49:41.230Z,32.29
2017-08-04T09:50:40.934Z,32.09
2017-08-04T09:51:41.222Z,32.28
2017-08-04T09:52:41.233Z,32.08
2017-08-04T09:53:41.934Z,33.15
2017-08-04T09:54:40.939Z,32.18
2017-08-04T09:55:41.299Z,32.29
2017-08-04T09:56:41.257Z,32.28
2017-08-04T09:57:41.264Z,31.4
2017-08-04T09:58:41.272Z,31.69
2017-08-04T09:59:41.281Z,32.37
2017-08-04T10:00:41.043Z,31.69
2017-08-04T10:01:40.990Z,33.25
2017-08-04T10:02:41.003Z,31.98
2017-08-04T10:03:41.309Z,32.67
2017-08-04T10:04:41.319Z,31.7
2017-08-04T10:05:41.147Z,31.8
2017-08-04T10:06:41.331Z,31.41
2017-08-04T10:07:41.339Z,31.41
2017-08-04T10:08:41.797Z,32.09
2017-08-04T10:09:41.066Z,31.31
2017-08-04T10:10:41.395Z,31.12
2017-08-04T10:11:41.092Z,32.08
2017-08-04T10:12:41.383Z,32.08
2017-08-04T10:13:41.385Z,32.28
2017-08-04T10:14:41.391Z,32.18
2017-08-04T10:15:41.144Z,32.28
2017-08-04T10:16:41.409Z,32.18
2017-08-04T10:17:41.118Z,31.88
2017-08-04T10:18:41.425Z,31.7
2017-08-04T10:19:41.128Z,31.22
2017-08-04T10:20:41.537Z,30.63
2017-08-04T10:21:41.145Z,30.65
2017-08-04T10:22:41.451Z,30.45
2017-08-04T10:23:41.171Z,31.31
2017-08-04T10:24:41.465Z,32.37
2017-08-04T10:25:41.576Z,33.23
2017-08-04T10:26:41.484Z,33.7
2017-08-04T10:27:41.491Z,33.62
2017-08-04T10:28:41.217Z,32.84
2017-08-04T10:29:41.503Z,32.37
2017-08-04T10:30:41.308Z,32.37
2017-08-04T10:31:41.519Z,32.48
2017-08-04T10:32:41.236Z,32.39
2017-08-04T10:33:41.531Z,31.33
2017-08-04T10:34:41.542Z,31.45
2017-08-04T10:35:41.658Z,32.13
2017-08-04T10:36:41.557Z,30.77
2017-08-04T10:37:41.565Z,30.2
2017-08-04T10:38:41.297Z,30.38
2017-08-04T10:39:41.278Z,30.66
2017-08-04T10:40:41.686Z,30.37
2017-08-04T10:41:41.604Z,31.05
2017-08-04T10:42:41.607Z,31.35
2017-08-04T10:43:41.620Z,31.26
2017-08-04T10:44:41.318Z,30.4
2017-08-04T10:45:41.695Z,30.49
2017-08-04T10:46:41.354Z,30.32
2017-08-04T10:47:41.645Z,29.93
2017-08-04T10:48:41.655Z,28.25
2017-08-04T10:49:41.665Z,27.76
2017-08-04T10:50:41.678Z,28.23
2017-08-04T10:51:41.686Z,29.5
2017-08-04T10:52:41.380Z,29.49
2017-08-04T10:53:41.691Z,29.86
2017-08-04T10:54:41.699Z,30.45
2017-08-04T10:55:41.789Z,30.65
2017-08-04T10:56:41.715Z,30.54
2017-08-04T10:57:41.729Z,30.45
2017-08-04T10:58:41.726Z,30.26
2017-08-04T10:59:41.733Z,29.86
2017-08-04T11:00:41.789Z,30.18
2017-08-04T11:01:41.759Z,30.06
2017-08-04T11:02:41.756Z,29.98
2017-08-04T11:03:41.468Z,30.84
2017-08-04T11:04:41.775Z,31.23
2017-08-04T11:05:41.856Z,31.13
2017-08-04T11:06:41.789Z,32.21
2017-08-04T11:07:41.796Z,31.8
2017-08-04T11:08:41.815Z,31.41
2017-08-04T11:09:43.425Z,31.51
2017-08-04T11:10:41.535Z,32.19
2017-08-04T11:11:41.830Z,32.09
2017-08-04T11:12:41.837Z,32.57
2017-08-04T11:13:41.842Z,33.34
2017-08-04T11:14:41.854Z,33.34
2017-08-04T11:15:41.614Z,33.15
2017-08-04T11:16:41.874Z,34.79
2017-08-04T11:17:41.872Z,33.64
2017-08-04T11:18:41.577Z,33.34
2017-08-04T11:19:41.587Z,33.64
2017-08-04T11:20:41.979Z,33.34
2017-08-04T11:21:41.899Z,33.64
2017-08-04T11:22:41.916Z,33.06
2017-08-04T11:23:41.921Z,34.61
2017-08-04T11:24:42.275Z,33.56
2017-08-04T11:25:41.963Z,32.97
2017-08-04T11:26:41.943Z,33.26
2017-08-04T11:27:41.944Z,34.44
2017-08-04T11:28:41.951Z,33.36
2017-08-04T11:29:41.957Z,33.28
2017-08-04T11:30:41.999Z,32.6
2017-08-04T11:31:41.976Z,31.92
2017-08-04T11:32:41.982Z,31.64
2017-08-04T11:33:41.687Z,31.25
2017-08-04T11:34:41.994Z,32.42
2017-08-04T11:35:41.774Z,32.11
2017-08-04T11:36:42.016Z,32.42
2017-08-04T11:37:42.016Z,33.48
2017-08-04T11:38:42.026Z,33.28
2017-08-04T11:39:44.785Z,33.26
2017-08-04T11:40:42.042Z,33.26
2017-08-04T11:41:41.745Z,34.14
2017-08-04T11:42:42.057Z,35.39
2017-08-04T11:43:42.074Z,34.21
2017-08-04T11:44:42.076Z,34.5
2017-08-04T11:45:42.093Z,34.99
2017-08-04T11:46:42.085Z,34.78
2017-08-04T11:47:41.796Z,34.58
2017-08-04T11:48:42.101Z,35.16
2017-08-04T11:49:42.104Z,35.25
2017-08-04T11:50:42.141Z,35.73
2017-08-04T11:51:41.813Z,35.13
2017-08-04T11:52:42.123Z,35.25
2017-08-04T11:53:41.832Z,34.86
2017-08-04T11:54:42.143Z,35.44
2017-08-04T11:55:42.244Z,36.2
2017-08-04T11:56:42.153Z,36.2
2017-08-04T11:57:42.168Z,35.71
2017-08-04T11:58:42.169Z,36.22
2017-08-04T11:59:42.177Z,36.3
2017-08-04T12:00:42.189Z,35.63
2017-08-04T12:01:42.182Z,36.32
2017-08-04T12:02:42.191Z,36
2017-08-04T12:03:42.234Z,36.32
2017-08-04T12:04:42.205Z,36.41
2017-08-04T12:05:42.308Z,36.22
2017-08-04T12:06:42.230Z,36.12
2017-08-04T12:07:42.228Z,36.71
2017-08-04T12:08:42.233Z,36.61
2017-08-04T12:09:42.237Z,36.32
2017-08-04T12:10:42.318Z,36.12
2017-08-04T12:11:42.250Z,36.41
2017-08-04T12:12:42.252Z,36.71
2017-08-04T12:13:41.964Z,36.51
2017-08-04T12:14:42.278Z,36.9
2017-08-04T12:15:42.035Z,36.2
2017-08-04T12:16:42.282Z,36.8
2017-08-04T12:17:42.286Z,36.59
2017-08-04T12:18:42.293Z,36.4
2017-08-04T12:19:41.997Z,36.79
2017-08-04T12:20:42.365Z,36.2
2017-08-04T12:21:42.317Z,36.88
2017-08-04T12:22:42.320Z,36.67
2017-08-04T12:23:42.323Z,37.26
2017-08-04T12:24:42.331Z,37.64
2017-08-04T12:25:42.095Z,37.54
2017-08-04T12:26:42.343Z,38.23
2017-08-04T12:27:42.047Z,38.62
2017-08-04T12:28:42.367Z,38.5
2017-08-04T12:29:42.375Z,38.21
2017-08-04T12:30:42.375Z,38.79
2017-08-04T12:31:42.376Z,38.98
2017-08-04T12:32:42.386Z,38.96
2017-08-04T12:33:42.386Z,39.75
2017-08-04T12:34:42.392Z,39.96
2017-08-04T12:35:42.437Z,39.37
2017-08-04T12:36:42.413Z,38.98
2017-08-04T12:37:42.439Z,38.79
2017-08-04T12:38:42.432Z,39.08
2017-08-04T12:39:42.137Z,39.37
2017-08-04T12:40:42.439Z,39.18
2017-08-04T12:41:42.447Z,39.67
2017-08-04T12:42:42.180Z,39.28
2017-08-04T12:43:42.457Z,39.08
2017-08-04T12:44:42.474Z,38.91
2017-08-04T12:45:42.552Z,38.71
2017-08-04T12:46:42.473Z,38.62
2017-08-04T12:47:42.472Z,38.23
2017-08-04T12:48:42.190Z,37.46
2017-08-04T12:49:42.518Z,39
2017-08-04T12:50:42.604Z,38.42
2017-08-04T12:51:42.228Z,37.76
2017-08-04T12:52:42.513Z,37.85
2017-08-04T12:53:42.520Z,37.56
2017-08-04T12:54:42.544Z,37.58
2017-08-04T12:55:42.582Z,38.36
2017-08-04T12:56:42.539Z,37.48